createdAt,value
2023-04-26T00:02:38.068Z,100572.00
2023-04-26T00:05:39.918Z,100574.88
2023-04-26T00:08:42.260Z,100575.88
2023-04-26T00:11:43.736Z,100577.75
2023-04-26T00:14:45.345Z,100588.59
2023-04-26T00:17:47.379Z,100576.06
2023-04-26T00:20:48.934Z,100578.75
2023-04-26T00:23:50.651Z,100572.63
2023-04-26T00:26:55.688Z,100577.88
2023-04-26T00:29:57.293Z,100568.91
2023-04-26T00:32:58.819Z,100570.06
2023-04-26T00:36:00.414Z,100571.94
2023-04-26T00:39:02.620Z,100571.94
2023-04-26T00:42:04.335Z,100573.81
2023-04-26T00:45:07.351Z,100577.38
2023-04-26T00:48:08.909Z,100577.50
2023-04-26T00:51:10.563Z,100576.66
2023-04-26T00:54:14.074Z,100573.94
2023-04-26T00:57:15.847Z,100574.97
2023-04-26T01:00:17.512Z,100583.97
2023-04-26T01:03:20.319Z,100585.81
2023-04-26T01:06:22.583Z,100585.13
2023-04-26T01:09:24.091Z,100584.44
2023-04-26T01:12:26.683Z,100585.28
2023-04-26T01:15:29.907Z,100591.72
2023-04-26T01:18:31.458Z,100591.72
2023-04-26T01:21:33.347Z,100596.31
2023-04-26T01:24:36.116Z,100590.88
2023-04-26T01:27:39.108Z,100590.03
2023-04-26T01:30:40.661Z,100593.72
2023-04-26T01:33:42.265Z,100591.00
2023-04-26T01:36:43.714Z,100594.75
2023-04-26T01:39:45.167Z,100595.75
2023-04-26T01:42:46.700Z,100605.75
2023-04-26T01:45:48.296Z,100605.75
2023-04-26T01:49:05.154Z,100595.06
2023-04-26T01:52:06.660Z,100596.75
2023-04-26T01:55:08.825Z,100600.50
2023-04-26T01:58:10.505Z,100588.75
2023-04-26T02:01:12.349Z,100598.78
2023-04-26T02:04:13.879Z,100593.53
2023-04-26T02:07:15.421Z,100591.78
2023-04-26T02:10:20.468Z,100592.81
2023-04-26T02:13:22.013Z,100596.53
2023-04-26T02:16:24.379Z,100594.69
2023-04-26T02:19:26.141Z,100593.81
2023-04-26T02:22:27.756Z,100596.69
2023-04-26T02:25:29.350Z,100591.28
2023-04-26T02:28:31.473Z,100594.13
2023-04-26T02:31:32.985Z,100587.72
2023-04-26T02:34:34.655Z,100584.13
2023-04-26T02:37:39.685Z,100582.44
2023-04-26T02:40:41.245Z,100592.44
2023-04-26T02:43:44.110Z,100594.31
2023-04-26T02:46:45.771Z,100592.56
2023-04-26T02:49:47.258Z,100599.88
2023-04-26T02:52:48.779Z,100589.88
2023-04-26T02:55:51.209Z,100590.00
2023-04-26T02:58:52.990Z,100590.88
2023-04-26T03:01:54.805Z,100591.72
2023-04-26T03:04:56.991Z,100597.16
2023-04-26T03:07:58.533Z,100589.72
2023-04-26T03:11:00.281Z,100579.72
2023-04-26T03:14:02.435Z,100588.38
2023-04-26T03:17:04.949Z,100587.41
2023-04-26T03:20:08.044Z,100593.34
2023-04-26T03:23:09.616Z,100593.03
2023-04-26T03:26:12.176Z,100591.88
2023-04-26T03:29:13.758Z,100592.56
2023-04-26T03:32:15.455Z,100587.69
2023-04-26T03:35:17.184Z,100582.94
2023-04-26T03:38:18.727Z,100583.63
2023-04-26T03:41:20.926Z,100590.47
2023-04-26T03:44:22.544Z,100589.44
2023-04-26T03:47:24.242Z,100589.13
2023-04-26T03:50:26.419Z,100584.56
2023-04-26T03:53:28.040Z,100590.66
2023-04-26T03:56:29.574Z,100587.97
2023-04-26T03:59:31.592Z,100591.38
2023-04-26T04:02:34.425Z,100594.09
2023-04-26T04:05:36.205Z,100587.81
2023-04-26T04:08:38.692Z,100586.78
2023-04-26T04:11:40.526Z,100594.94
2023-04-26T04:14:42.110Z,100591.53
2023-04-26T04:17:43.786Z,100592.38
2023-04-26T04:20:46.076Z,100588.84
2023-04-26T04:23:47.821Z,100606.94
2023-04-26T04:26:49.914Z,100600.69
2023-04-26T04:29:51.477Z,100602.69
2023-04-26T04:32:54.172Z,100602.88
2023-04-26T04:35:55.844Z,100597.59
2023-04-26T04:38:58.138Z,100604.03
2023-04-26T04:42:00.399Z,100607.91
2023-04-26T04:45:02.385Z,100613.34
2023-04-26T04:48:05.165Z,100613.50
2023-04-26T04:51:07.994Z,100609.09
2023-04-26T04:54:14.425Z,100609.09
2023-04-26T04:57:16.810Z,100614.66
2023-04-26T05:00:20.272Z,100610.94
2023-04-26T05:03:29.277Z,100620.78
2023-04-26T05:06:32.145Z,100614.34
2023-04-26T05:09:33.890Z,100616.91
2023-04-26T05:12:35.595Z,100614.88
2023-04-26T05:15:38.408Z,100630.16
2023-04-26T05:18:40.109Z,100630.84
2023-04-26T05:21:41.978Z,100627.13
2023-04-26T05:24:47.689Z,100632.41
2023-04-26T05:27:50.011Z,100625.09
2023-04-26T05:31:01.905Z,100626.84
2023-04-26T05:34:25.709Z,100636.66
2023-04-26T05:37:31.644Z,100632.25
2023-04-26T05:40:33.140Z,100637.69
2023-04-26T05:43:35.397Z,100637.69
2023-04-26T05:46:37.000Z,100640.41
2023-04-26T05:49:38.486Z,100644.94
2023-04-26T05:52:40.789Z,100642.25
2023-04-26T05:55:43.338Z,100642.41
2023-04-26T05:58:45.289Z,100644.28
2023-04-26T06:01:46.991Z,100647.13
2023-04-26T06:04:48.528Z,100645.44
2023-04-26T06:07:52.213Z,100653.59
2023-04-26T06:10:54.499Z,100652.88
2023-04-26T06:13:55.968Z,100644.88
2023-04-26T06:16:57.993Z,100647.78
2023-04-26T06:19:59.755Z,100648.75
2023-04-26T06:23:01.295Z,100656.22
2023-04-26T06:26:02.851Z,100658.06
2023-04-26T06:29:04.517Z,100666.22
2023-04-26T06:32:06.278Z,100661.81
2023-04-26T06:35:09.052Z,100668.09
2023-04-26T06:38:12.668Z,100664.66
2023-04-26T06:41:14.373Z,100672.81
2023-04-26T06:44:15.846Z,100661.94
2023-04-26T06:47:17.531Z,100670.09
2023-04-26T06:50:19.135Z,100676.53
2023-04-26T06:53:22.945Z,100672.09
2023-04-26T06:56:24.856Z,100673.81
2023-04-26T06:59:26.509Z,100682.09
2023-04-26T07:02:28.061Z,100678.53
2023-04-26T07:05:29.596Z,100674.13
2023-04-26T07:08:31.329Z,100686.81
2023-04-26T07:11:32.849Z,100682.41
2023-04-26T07:14:37.177Z,100687.84
2023-04-26T07:17:40.160Z,100684.28
2023-04-26T07:20:42.088Z,100687.16
2023-04-26T07:23:43.602Z,100681.72
2023-04-26T07:26:45.399Z,100680.88
2023-04-26T07:29:47.119Z,100687.31
2023-04-26T07:32:48.775Z,100686.44
2023-04-26T07:35:56.572Z,100686.28
2023-04-26T07:38:58.148Z,100686.44
2023-04-26T07:41:59.648Z,100691.88
2023-04-26T07:45:01.126Z,100684.75
2023-04-26T07:48:02.662Z,100691.88
2023-04-26T07:51:08.971Z,100686.44
2023-04-26T07:54:10.936Z,100696.44
2023-04-26T07:57:12.458Z,100687.47
2023-04-26T08:00:15.833Z,100690.16
2023-04-26T08:03:18.158Z,100695.59
2023-04-26T08:06:20.045Z,100691.19
2023-04-26T08:09:21.881Z,100689.31
2023-04-26T08:12:23.392Z,100694.75
2023-04-26T08:15:24.909Z,100696.63
2023-04-26T08:18:26.411Z,100680.47
2023-04-26T08:21:27.895Z,100692.34
2023-04-26T08:24:29.540Z,100685.91
2023-04-26T08:27:31.848Z,100690.47
2023-04-26T08:30:33.584Z,100691.34
2023-04-26T08:33:35.281Z,100684.22
2023-04-26T08:36:41.511Z,100689.63
2023-04-26T08:39:42.997Z,100699.59
2023-04-26T08:42:44.503Z,100696.22
2023-04-26T08:45:49.309Z,100698.75
2023-04-26T08:49:05.683Z,100696.06
2023-04-26T08:52:15.919Z,100700.63
2023-04-26T08:55:20.005Z,100694.34
2023-04-26T08:58:23.122Z,100691.66
2023-04-26T09:01:26.020Z,100689.06
2023-04-26T09:04:27.751Z,100696.38
2023-04-26T09:07:38.233Z,100690.81
2023-04-26T09:10:39.706Z,100694.66
2023-04-26T09:13:41.174Z,100690.09
2023-04-26T09:16:42.754Z,100691.97
2023-04-26T09:19:45.567Z,100686.53
2023-04-26T09:22:47.177Z,100692.81
2023-04-26T09:25:48.661Z,100697.38
2023-04-26T09:28:50.657Z,100698.38
2023-04-26T09:31:52.751Z,100693.97
2023-04-26T09:34:54.410Z,100701.09
2023-04-26T09:38:12.114Z,100701.22
2023-04-26T09:41:14.481Z,100705.66
2023-04-26T09:44:25.773Z,100706.66
2023-04-26T09:47:27.252Z,100709.50
2023-04-26T09:50:30.320Z,100705.94
2023-04-26T09:53:49.924Z,100702.22
2023-04-26T09:57:01.600Z,100707.63
2023-04-26T10:00:10.240Z,100704.91
2023-04-26T10:03:12.899Z,100710.53
2023-04-26T10:06:14.886Z,100711.50
2023-04-26T10:09:16.408Z,100710.66
2023-04-26T10:12:20.048Z,100706.25
2023-04-26T10:15:21.855Z,100712.53
2023-04-26T10:18:23.375Z,100714.53
2023-04-26T10:21:31.851Z,100717.94
2023-04-26T10:24:34.934Z,100717.25
2023-04-26T10:27:45.401Z,100709.94
2023-04-26T10:30:57.777Z,100717.25
2023-04-26T10:34:18.631Z,100711.97
2023-04-26T10:37:20.211Z,100703.16
2023-04-26T10:40:27.849Z,100701.09
2023-04-26T10:43:29.811Z,100689.59
2023-04-26T10:46:40.623Z,100690.44
2023-04-26T10:49:46.957Z,100687.72
2023-04-26T10:53:03.549Z,100687.72
2023-04-26T10:56:05.311Z,100688.69
2023-04-26T11:02:52.934Z,100686.16
2023-04-26T11:05:55.393Z,100682.75
2023-04-26T11:08:59.880Z,100679.91
2023-04-26T11:12:02.545Z,100675.47
2023-04-26T11:15:04.361Z,100672.75
2023-04-26T11:18:06.306Z,100676.31
2023-04-26T11:21:08.916Z,100681.72
2023-04-26T11:24:10.435Z,100680.03
2023-04-26T11:27:18.128Z,100678.16
2023-04-26T11:30:19.950Z,100675.47
2023-04-26T11:33:23.046Z,100677.19
2023-04-26T11:36:24.940Z,100683.44
2023-04-26T11:39:27.102Z,100688.88
2023-04-26T11:42:28.578Z,100694.44
2023-04-26T11:45:32.736Z,100685.16
2023-04-26T11:48:35.785Z,100690.56
2023-04-26T11:51:37.482Z,100695.16
2023-04-26T11:54:39.064Z,100692.44
2023-04-26T11:57:40.915Z,100694.31
2023-04-26T12:00:59.663Z,100700.56
2023-04-26T12:04:01.658Z,100703.41
2023-04-26T12:07:07.074Z,100700.72
2023-04-26T12:10:16.646Z,100699.00
2023-04-26T12:13:19.371Z,100700.03
2023-04-26T12:16:26.702Z,100700.88
2023-04-26T12:19:38.303Z,100695.47
2023-04-26T12:22:39.880Z,100688.31
2023-04-26T12:25:51.615Z,100695.47
2023-04-26T12:28:53.116Z,100688.31
2023-04-26T12:31:54.709Z,100688.31
2023-04-26T12:34:56.175Z,100694.75
2023-04-26T12:38:00.494Z,100684.91
2023-04-26T12:41:02.150Z,100684.91
2023-04-26T12:44:03.718Z,100682.03
2023-04-26T12:47:05.672Z,100687.47
2023-04-26T12:50:08.076Z,100684.75
2023-04-26T12:53:11.076Z,100684.91
2023-04-26T12:56:12.565Z,100676.91
2023-04-26T12:59:14.108Z,100685.06
2023-04-26T13:02:15.749Z,100692.34
2023-04-26T13:05:17.318Z,100682.50
2023-04-26T13:08:18.860Z,100680.66
2023-04-26T13:11:20.595Z,100683.38
2023-04-26T13:14:25.135Z,100669.81
2023-04-26T13:17:26.892Z,100671.50
2023-04-26T13:20:30.413Z,100671.34
2023-04-26T13:23:32.582Z,100671.50
2023-04-26T13:26:34.233Z,100676.91
2023-04-26T13:29:36.266Z,100670.66
2023-04-26T13:32:37.780Z,100677.22
2023-04-26T13:35:39.292Z,100678.09
2023-04-26T13:38:40.789Z,100686.34
2023-04-26T13:41:42.254Z,100686.34
2023-04-26T13:44:44.366Z,100691.78
2023-04-26T13:47:45.932Z,100695.50
2023-04-26T13:50:47.470Z,100699.91
2023-04-26T13:53:49.043Z,100695.50
2023-04-26T13:56:50.539Z,100698.09
2023-04-26T13:59:54.858Z,100697.06
2023-04-26T14:02:56.773Z,100703.19
2023-04-26T14:05:58.404Z,100705.75
2023-04-26T14:09:00.295Z,100700.16
2023-04-26T14:15:08.875Z,100699.00
2023-04-26T14:18:11.183Z,100699.00
2023-04-26T14:21:12.770Z,100694.44
2023-04-26T14:24:14.294Z,100702.56
2023-04-26T14:27:16.204Z,100708.00
2023-04-26T14:30:17.686Z,100699.88
2023-04-26T14:33:19.217Z,100704.97
2023-04-26T14:36:20.796Z,100700.44
2023-04-26T14:39:24.467Z,100708.09
2023-04-26T14:42:26.257Z,100706.78
2023-04-26T14:45:42.853Z,100708.25
2023-04-26T14:48:46.575Z,100708.06
2023-04-26T14:51:48.086Z,100703.88
2023-04-26T14:54:51.678Z,100709.03
2023-04-26T14:57:54.432Z,100720.25
2023-04-26T15:00:56.012Z,100706.06
2023-04-26T15:04:00.218Z,100704.78
2023-04-26T15:07:02.701Z,100707.88
2023-04-26T15:10:05.963Z,100705.69
2023-04-26T15:13:07.620Z,100710.97
2023-04-26T15:16:09.125Z,100709.81
2023-04-26T15:19:10.655Z,100717.78
2023-04-26T15:22:12.137Z,100709.63
2023-04-26T15:25:13.803Z,100712.03
2023-04-26T15:28:16.593Z,100713.59
2023-04-26T15:31:20.759Z,100712.59
2023-04-26T15:34:25.150Z,100712.91
2023-04-26T15:37:26.583Z,100709.50
2023-04-26T15:40:28.168Z,100713.06
2023-04-26T15:43:29.665Z,100708.47
2023-04-26T15:46:31.401Z,100715.75
2023-04-26T15:49:32.986Z,100717.63
2023-04-26T15:52:38.578Z,100711.34
2023-04-26T15:55:41.528Z,100719.50
2023-04-26T15:58:45.206Z,100715.91
2023-04-26T16:01:46.905Z,100715.06
2023-04-26T16:04:48.523Z,100716.09
2023-04-26T16:07:50.751Z,100713.38
2023-04-26T16:10:52.238Z,100715.06
2023-04-26T16:13:53.718Z,100710.47
2023-04-26T16:16:55.445Z,100712.22
2023-04-26T16:19:56.906Z,100713.06
2023-04-26T16:22:58.423Z,100712.22
2023-04-26T16:26:00.071Z,100716.78
2023-04-26T16:29:01.754Z,100717.47
2023-04-26T16:32:03.437Z,100718.34
2023-04-26T16:35:08.884Z,100712.91
2023-04-26T16:38:10.574Z,100718.34
2023-04-26T16:41:12.131Z,100725.47
2023-04-26T16:44:13.632Z,100723.59
2023-04-26T16:47:15.105Z,100730.75
2023-04-26T16:50:16.561Z,100736.84
2023-04-26T16:53:18.296Z,100726.88
2023-04-26T16:56:19.921Z,100737.56
2023-04-26T16:59:22.147Z,100734.69
2023-04-26T17:02:23.694Z,100740.97
2023-04-26T17:05:25.785Z,100734.69
2023-04-26T17:08:27.378Z,100741.81
2023-04-26T17:11:29.471Z,100735.53
2023-04-26T17:14:32.619Z,100740.84
2023-04-26T17:17:34.516Z,100744.53
2023-04-26T17:20:36.293Z,100747.25
2023-04-26T17:23:37.815Z,100742.53
2023-04-26T17:26:39.396Z,100746.09
2023-04-26T17:29:41.408Z,100746.09
2023-04-26T17:32:42.919Z,100742.53
2023-04-26T17:35:44.532Z,100751.50
2023-04-26T17:38:46.104Z,100746.09
2023-04-26T17:41:47.578Z,100738.13
2023-04-26T17:44:49.052Z,100746.25
2023-04-26T17:47:50.724Z,100744.72
2023-04-26T17:50:52.843Z,100753.00
2023-04-26T17:53:54.513Z,100748.72
2023-04-26T17:56:56.411Z,100750.75
2023-04-26T17:59:57.890Z,100753.44
2023-04-26T18:03:02.821Z,100758.19
2023-04-26T18:06:04.646Z,100753.63
2023-04-26T18:09:06.147Z,100762.75
2023-04-26T18:12:08.430Z,100761.06
2023-04-26T18:15:10.333Z,100767.34
2023-04-26T18:18:11.950Z,100768.38
2023-04-26T18:21:13.809Z,100772.78
2023-04-26T18:24:15.420Z,100767.34
2023-04-26T18:27:17.588Z,100763.94
2023-04-26T18:30:19.332Z,100770.19
2023-04-26T18:33:20.974Z,100768.50
2023-04-26T18:36:22.635Z,100773.09
2023-04-26T18:39:24.114Z,100770.38
2023-04-26T18:42:25.622Z,100771.38
2023-04-26T18:45:27.108Z,100783.09
2023-04-26T18:48:28.680Z,100781.38
2023-04-26T18:51:30.181Z,100778.66
2023-04-26T18:54:33.058Z,100782.22
2023-04-26T18:57:34.559Z,100782.38
2023-04-26T19:00:36.901Z,100783.25
2023-04-26T19:03:38.534Z,100781.69
2023-04-26T19:06:41.370Z,100779.81
2023-04-26T19:09:53.692Z,100789.13
2023-04-26T19:12:55.592Z,100791.84
2023-04-26T19:15:57.052Z,100794.72
2023-04-26T19:18:58.690Z,100792.84
2023-04-26T19:22:01.033Z,100803.84
2023-04-26T19:25:02.703Z,100793.16
2023-04-26T19:28:04.434Z,100805.72
2023-04-26T19:31:06.208Z,100809.44
2023-04-26T19:34:07.753Z,100797.72
2023-04-26T19:37:09.438Z,100802.28
2023-04-26T19:40:11.935Z,100805.84
2023-04-26T19:43:13.738Z,100806.88
2023-04-26T19:46:15.568Z,100806.88
2023-04-26T19:49:17.292Z,100803.31
2023-04-26T19:52:18.769Z,100803.31
2023-04-26T19:55:20.497Z,100810.59
2023-04-26T19:58:21.973Z,100811.47
2023-04-26T20:01:23.653Z,100814.31
2023-04-26T20:04:25.573Z,100816.03
2023-04-26T20:07:27.534Z,100811.47
2023-04-26T20:10:33.700Z,100829.44
2023-04-26T20:13:35.346Z,100816.88
2023-04-26T20:16:37.046Z,100826.00
2023-04-26T20:19:38.614Z,100830.59
2023-04-26T20:22:40.655Z,100834.88
2023-04-26T20:25:42.208Z,100825.03
2023-04-26T20:28:43.692Z,100831.44
2023-04-26T20:31:45.476Z,100831.44
2023-04-26T20:34:46.965Z,100822.31
2023-04-26T20:37:48.499Z,100832.31
2023-04-26T20:40:50.029Z,100824.19
2023-04-26T20:43:52.874Z,100826.88
2023-04-26T20:46:54.385Z,100830.44
2023-04-26T20:49:56.014Z,100825.88
2023-04-26T20:52:57.654Z,100829.59
2023-04-26T20:55:59.184Z,100822.44
2023-04-26T20:59:00.722Z,100828.06
2023-04-26T21:02:02.926Z,100825.34
2023-04-26T21:05:04.970Z,100830.91
2023-04-26T21:08:06.436Z,100822.75
2023-04-26T21:11:07.910Z,100830.06
2023-04-26T21:14:09.492Z,100828.31
2023-04-26T21:17:11.228Z,100836.47
2023-04-26T21:20:12.948Z,100831.34
2023-04-26T21:23:14.442Z,100832.38
2023-04-26T21:26:16.174Z,100836.94
2023-04-26T21:29:17.656Z,100827.25
2023-04-26T21:32:19.197Z,100833.34
2023-04-26T21:35:20.718Z,100835.38
2023-04-26T21:38:22.219Z,100831.78
2023-04-26T21:41:25.653Z,100832.66
2023-04-26T21:44:27.104Z,100830.09
2023-04-26T21:47:28.707Z,100835.66
2023-04-26T21:50:30.456Z,100835.66
2023-04-26T21:53:31.976Z,100843.81
2023-04-26T21:56:33.842Z,100835.84
2023-04-26T21:59:36.290Z,100843.13
2023-04-26T22:02:38.961Z,100839.69
2023-04-26T22:05:40.882Z,100836.13
2023-04-26T22:08:42.458Z,100840.69
2023-04-26T22:11:43.985Z,100840.84
2023-04-26T22:14:45.625Z,100840.84
2023-04-26T22:17:47.177Z,100839.00
2023-04-26T22:20:48.767Z,100840.00
2023-04-26T22:23:50.401Z,100839.28
2023-04-26T22:26:51.911Z,100845.56
2023-04-26T22:29:53.412Z,100850.16
2023-04-26T22:32:57.326Z,100851.13
2023-04-26T22:35:59.513Z,100846.72
2023-04-26T22:39:01.450Z,100845.88
2023-04-26T22:42:02.988Z,100851.31
2023-04-26T22:45:04.968Z,100850.41
2023-04-26T22:48:06.616Z,100848.69
2023-04-26T22:51:08.123Z,100850.56
2023-04-26T22:54:09.586Z,100852.41
2023-04-26T22:57:11.192Z,100852.56
2023-04-26T23:00:14.456Z,100842.72
2023-04-26T23:03:16.080Z,100849.13
2023-04-26T23:06:17.593Z,100850.16
2023-04-26T23:09:19.103Z,100859.31
2023-04-26T23:12:20.593Z,100870.16
2023-04-26T23:15:22.158Z,100866.56
2023-04-26T23:18:23.619Z,100860.44
2023-04-26T23:21:25.070Z,100871.31
2023-04-26T23:24:26.772Z,100873.31
2023-04-26T23:27:28.265Z,100872.28
2023-04-26T23:30:29.748Z,100871.56
2023-04-26T23:33:31.468Z,100877.88
2023-04-26T23:36:33.380Z,100883.44
2023-04-26T23:39:35.871Z,100884.28
2023-04-26T23:42:37.471Z,100879.03
2023-04-26T23:45:38.968Z,100880.19
2023-04-26T23:48:40.900Z,100886.44
2023-04-26T23:51:42.439Z,100880.19
2023-04-26T23:54:43.924Z,100880.31
2023-04-26T23:57:45.394Z,100877.59
